sensor_id;sensor_type;location;lat;lon;timestamp;pressure;altitude;pressure_sealevel;temperature;humidity
31285;BME280;56605;51.516;6.742;2023-05-03T00:02:11;102645.50;;;4.60;100.00
31285;BME280;56605;51.516;6.742;2023-05-03T00:04:37;102642.69;;;4.63;100.00
31285;BME280;56605;51.516;6.742;2023-05-03T00:07:02;102654.28;;;4.61;100.00
31285;BME280;56605;51.516;6.742;2023-05-03T00:09:28;102655.97;;;4.46;100.00
31285;BME280;56605;51.516;6.742;2023-05-03T00:11:53;102654.22;;;4.44;100.00
31285;BME280;56605;51.516;6.742;2023-05-03T00:14:19;102646.53;;;4.40;100.00
31285;BME280;56605;51.516;6.742;2023-05-03T00:16:44;102652.50;;;4.61;100.00
31285;BME280;56605;51.516;6.742;2023-05-03T00:19:09;102650.97;;;4.57;100.00
31285;BME280;56605;51.516;6.742;2023-05-03T00:21:35;102657.44;;;4.51;100.00
31285;BME280;56605;51.516;6.742;2023-05-03T00:24:00;102659.00;;;4.72;100.00
31285;BME280;56605;51.516;6.742;2023-05-03T00:26:26;102660.81;;;4.53;100.00
31285;BME280;56605;51.516;6.742;2023-05-03T00:28:51;102672.44;;;4.33;100.00
31285;BME280;56605;51.516;6.742;2023-05-03T00:31:17;102666.34;;;4.49;100.00
31285;BME280;56605;51.516;6.742;2023-05-03T00:33:43;102666.75;;;4.59;100.00
31285;BME280;56605;51.516;6.742;2023-05-03T00:36:13;102664.13;;;4.41;100.00
31285;BME280;56605;51.516;6.742;2023-05-03T00:38:39;102661.84;;;4.51;100.00
31285;BME280;56605;51.516;6.742;2023-05-03T00:41:05;102668.56;;;4.40;100.00
31285;BME280;56605;51.516;6.742;2023-05-03T00:43:31;102663.34;;;4.39;100.00
31285;BME280;56605;51.516;6.742;2023-05-03T00:45:59;102657.38;;;4.35;100.00
31285;BME280;56605;51.516;6.742;2023-05-03T00:48:25;102663.41;;;4.37;100.00
31285;BME280;56605;51.516;6.742;2023-05-03T00:50:51;102660.69;;;4.39;100.00
31285;BME280;56605;51.516;6.742;2023-05-03T00:53:19;102659.53;;;4.27;100.00
31285;BME280;56605;51.516;6.742;2023-05-03T00:55:45;102657.19;;;4.38;100.00
31285;BME280;56605;51.516;6.742;2023-05-03T00:58:10;102658.13;;;4.19;100.00
31285;BME280;56605;51.516;6.742;2023-05-03T01:00:36;102656.66;;;4.14;100.00
31285;BME280;56605;51.516;6.742;2023-05-03T01:03:01;102655.13;;;4.10;100.00
31285;BME280;56605;51.516;6.742;2023-05-03T01:05:32;102657.75;;;4.10;100.00
31285;BME280;56605;51.516;6.742;2023-05-03T01:08:58;102659.69;;;3.88;100.00
31285;BME280;56605;51.516;6.742;2023-05-03T01:15:26;102654.75;;;4.00;100.00
31285;BME280;56605;51.516;6.742;2023-05-03T01:17:34;102647.25;;;3.90;100.00
31285;BME280;56605;51.516;6.742;2023-05-03T01:20:04;102652.63;;;3.89;100.00
31285;BME280;56605;51.516;6.742;2023-05-03T01:23:20;102653.13;;;3.78;100.00
31285;BME280;56605;51.516;6.742;2023-05-03T01:25:36;102660.84;;;3.83;100.00
31285;BME280;56605;51.516;6.742;2023-05-03T01:28:01;102655.94;;;3.92;100.00
31285;BME280;56605;51.516;6.742;2023-05-03T01:30:27;102663.03;;;3.92;100.00
31285;BME280;56605;51.516;6.742;2023-05-03T01:33:12;102661.47;;;3.88;100.00
31285;BME280;56605;51.516;6.742;2023-05-03T01:35:43;102667.13;;;3.80;100.00
31285;BME280;56605;51.516;6.742;2023-05-03T01:38:12;102665.38;;;3.80;100.00
31285;BME280;56605;51.516;6.742;2023-05-03T01:40:59;102667.88;;;3.64;100.00
31285;BME280;56605;51.516;6.742;2023-05-03T01:43:27;102666.91;;;3.85;100.00
31285;BME280;56605;51.516;6.742;2023-05-03T01:45:55;102664.97;;;3.88;100.00
31285;BME280;56605;51.516;6.742;2023-05-03T01:48:20;102669.84;;;3.78;100.00
31285;BME280;56605;51.516;6.742;2023-05-03T01:50:46;102670.78;;;3.77;100.00
31285;BME280;56605;51.516;6.742;2023-05-03T01:53:11;102669.06;;;3.76;100.00
31285;BME280;56605;51.516;6.742;2023-05-03T01:55:36;102672.25;;;3.65;100.00
31285;BME280;56605;51.516;6.742;2023-05-03T01:58:02;102674.44;;;3.55;100.00
31285;BME280;56605;51.516;6.742;2023-05-03T02:00:27;102678.19;;;3.51;100.00
31285;BME280;56605;51.516;6.742;2023-05-03T02:02:52;102685.81;;;3.58;100.00
31285;BME280;56605;51.516;6.742;2023-05-03T02:05:18;102680.84;;;3.69;100.00
31285;BME280;56605;51.516;6.742;2023-05-03T02:07:43;102679.13;;;3.50;100.00
31285;BME280;56605;51.516;6.742;2023-05-03T02:10:09;102689.69;;;3.50;100.00
31285;BME280;56605;51.516;6.742;2023-05-03T02:12:42;102690.69;;;3.48;100.00
31285;BME280;56605;51.516;6.742;2023-05-03T02:15:08;102690.75;;;3.46;100.00
31285;BME280;56605;51.516;6.742;2023-05-03T02:17:33;102695.31;;;3.42;100.00
31285;BME280;56605;51.516;6.742;2023-05-03T02:19:59;102693.03;;;3.35;100.00
31285;BME280;56605;51.516;6.742;2023-05-03T02:22:24;102688.53;;;3.37;100.00
31285;BME280;56605;51.516;6.742;2023-05-03T02:24:49;102692.66;;;3.42;100.00
31285;BME280;56605;51.516;6.742;2023-05-03T02:27:15;102695.72;;;3.52;100.00
31285;BME280;56605;51.516;6.742;2023-05-03T02:29:40;102694.53;;;3.40;100.00
31285;BME280;56605;51.516;6.742;2023-05-03T02:32:06;102692.88;;;3.19;100.00
31285;BME280;56605;51.516;6.742;2023-05-03T02:34:31;102697.53;;;3.13;100.00
31285;BME280;56605;51.516;6.742;2023-05-03T02:36:57;102697.81;;;3.26;100.00
31285;BME280;56605;51.516;6.742;2023-05-03T02:39:22;102694.69;;;3.37;100.00
31285;BME280;56605;51.516;6.742;2023-05-03T02:41:48;102697.19;;;3.21;100.00
31285;BME280;56605;51.516;6.742;2023-05-03T02:44:13;102702.28;;;3.24;100.00
31285;BME280;56605;51.516;6.742;2023-05-03T02:46:38;102703.16;;;3.25;100.00
31285;BME280;56605;51.516;6.742;2023-05-03T02:49:06;102711.09;;;3.25;100.00
31285;BME280;56605;51.516;6.742;2023-05-03T02:51:31;102710.47;;;3.20;100.00
31285;BME280;56605;51.516;6.742;2023-05-03T02:53:57;102700.44;;;3.07;100.00
31285;BME280;56605;51.516;6.742;2023-05-03T02:56:22;102698.22;;;3.17;100.00
31285;BME280;56605;51.516;6.742;2023-05-03T02:58:50;102702.94;;;3.10;100.00
31285;BME280;56605;51.516;6.742;2023-05-03T03:01:16;102688.03;;;3.09;100.00
31285;BME280;56605;51.516;6.742;2023-05-03T03:03:41;102693.81;;;2.98;100.00
31285;BME280;56605;51.516;6.742;2023-05-03T03:06:06;102689.25;;;3.02;100.00
31285;BME280;56605;51.516;6.742;2023-05-03T03:08:32;102687.16;;;2.89;100.00
31285;BME280;56605;51.516;6.742;2023-05-03T03:10:57;102684.63;;;2.67;100.00
31285;BME280;56605;51.516;6.742;2023-05-03T03:13:22;102678.13;;;2.74;100.00
31285;BME280;56605;51.516;6.742;2023-05-03T03:15:48;102673.16;;;2.87;100.00
31285;BME280;56605;51.516;6.742;2023-05-03T03:18:13;102669.31;;;2.75;100.00
31285;BME280;56605;51.516;6.742;2023-05-03T03:20:38;102672.03;;;2.74;100.00
31285;BME280;56605;51.516;6.742;2023-05-03T03:23:04;102672.34;;;2.87;100.00
31285;BME280;56605;51.516;6.742;2023-05-03T03:25:29;102666.31;;;2.83;100.00
31285;BME280;56605;51.516;6.742;2023-05-03T03:27:54;102661.72;;;2.88;100.00
31285;BME280;56605;51.516;6.742;2023-05-03T03:30:19;102668.75;;;2.88;100.00
31285;BME280;56605;51.516;6.742;2023-05-03T03:32:45;102657.13;;;2.92;100.00
31285;BME280;56605;51.516;6.742;2023-05-03T03:35:10;102655.16;;;2.97;100.00
31285;BME280;56605;51.516;6.742;2023-05-03T03:37:37;102660.84;;;2.88;100.00
31285;BME280;56605;51.516;6.742;2023-05-03T03:40:03;102657.41;;;2.86;100.00
31285;BME280;56605;51.516;6.742;2023-05-03T03:42:28;102655.41;;;2.72;100.00
31285;BME280;56605;51.516;6.742;2023-05-03T03:44:54;102651.00;;;2.72;100.00
31285;BME280;56605;51.516;6.742;2023-05-03T03:47:19;102656.34;;;2.71;100.00
31285;BME280;56605;51.516;6.742;2023-05-03T03:49:44;102650.13;;;2.72;100.00
31285;BME280;56605;51.516;6.742;2023-05-03T03:52:10;102653.22;;;2.61;100.00
31285;BME280;56605;51.516;6.742;2023-05-03T03:54:35;102639.91;;;2.64;100.00
31285;BME280;56605;51.516;6.742;2023-05-03T03:57:00;102640.78;;;2.64;100.00
31285;BME280;56605;51.516;6.742;2023-05-03T03:59:29;102640.19;;;2.58;100.00
31285;BME280;56605;51.516;6.742;2023-05-03T04:01:54;102628.75;;;2.78;100.00
31285;BME280;56605;51.516;6.742;2023-05-03T04:04:19;102629.84;;;2.93;100.00
31285;BME280;56605;51.516;6.742;2023-05-03T04:06:45;102632.03;;;2.83;100.00
31285;BME280;56605;51.516;6.742;2023-05-03T04:09:10;102636.47;;;2.83;100.00
31285;BME280;56605;51.516;6.742;2023-05-03T04:11:36;102630.88;;;2.89;100.00
31285;BME280;56605;51.516;6.742;2023-05-03T04:14:01;102639.53;;;2.92;100.00
31285;BME280;56605;51.516;6.742;2023-05-03T04:16:28;102648.84;;;2.81;100.00
31285;BME280;56605;51.516;6.742;2023-05-03T04:18:53;102657.50;;;2.84;100.00
31285;BME280;56605;51.516;6.742;2023-05-03T04:21:18;102651.16;;;2.88;100.00
31285;BME280;56605;51.516;6.742;2023-05-03T04:23:44;102661.19;;;2.80;100.00
31285;BME280;56605;51.516;6.742;2023-05-03T04:26:09;102667.13;;;2.85;100.00
31285;BME280;56605;51.516;6.742;2023-05-03T04:28:35;102669.69;;;2.87;100.00
31285;BME280;56605;51.516;6.742;2023-05-03T04:31:03;102667.88;;;2.87;100.00
31285;BME280;56605;51.516;6.742;2023-05-03T04:33:28;102675.59;;;2.92;100.00
31285;BME280;56605;51.516;6.742;2023-05-03T04:35:55;102673.03;;;3.10;100.00
31285;BME280;56605;51.516;6.742;2023-05-03T04:38:21;102682.47;;;3.15;100.00
31285;BME280;56605;51.516;6.742;2023-05-03T04:40:47;102674.13;;;3.06;100.00
31285;BME280;56605;51.516;6.742;2023-05-03T04:43:12;102683.81;;;3.05;100.00
31285;BME280;56605;51.516;6.742;2023-05-03T04:45:38;102681.28;;;3.03;100.00
31285;BME280;56605;51.516;6.742;2023-05-03T04:48:04;102682.63;;;3.12;100.00
31285;BME280;56605;51.516;6.742;2023-05-03T04:50:30;102673.97;;;3.09;100.00
31285;BME280;56605;51.516;6.742;2023-05-03T04:52:56;102675.81;;;3.26;100.00
31285;BME280;56605;51.516;6.742;2023-05-03T04:55:21;102678.78;;;3.39;100.00
31285;BME280;56605;51.516;6.742;2023-05-03T04:57:46;102680.34;;;3.43;100.00
31285;BME280;56605;51.516;6.742;2023-05-03T05:00:12;102676.19;;;3.37;100.00
31285;BME280;56605;51.516;6.742;2023-05-03T05:02:38;102678.63;;;3.42;100.00
31285;BME280;56605;51.516;6.742;2023-05-03T05:05:03;102678.91;;;3.55;100.00
31285;BME280;56605;51.516;6.742;2023-05-03T05:07:29;102693.09;;;3.52;100.00
31285;BME280;56605;51.516;6.742;2023-05-03T05:09:54;102693.00;;;3.73;100.00
31285;BME280;56605;51.516;6.742;2023-05-03T05:12:20;102697.28;;;3.76;100.00
31285;BME280;56605;51.516;6.742;2023-05-03T05:14:45;102692.41;;;3.86;100.00
31285;BME280;56605;51.516;6.742;2023-05-03T05:17:10;102696.00;;;4.02;100.00
31285;BME280;56605;51.516;6.742;2023-05-03T05:19:36;102706.75;;;4.17;100.00
31285;BME280;56605;51.516;6.742;2023-05-03T05:22:01;102714.16;;;4.28;100.00
31285;BME280;56605;51.516;6.742;2023-05-03T05:24:26;102722.84;;;4.30;100.00
31285;BME280;56605;51.516;6.742;2023-05-03T05:26:52;102718.00;;;4.38;100.00
31285;BME280;56605;51.516;6.742;2023-05-03T05:29:17;102719.44;;;4.46;100.00
31285;BME280;56605;51.516;6.742;2023-05-03T05:31:43;102723.41;;;4.54;100.00
31285;BME280;56605;51.516;6.742;2023-05-03T05:34:08;102718.69;;;4.77;100.00
31285;BME280;56605;51.516;6.742;2023-05-03T05:36:33;102724.44;;;4.86;100.00
31285;BME280;56605;51.516;6.742;2023-05-03T05:38:59;102721.78;;;4.86;100.00
31285;BME280;56605;51.516;6.742;2023-05-03T05:41:24;102720.47;;;4.94;100.00
31285;BME280;56605;51.516;6.742;2023-05-03T05:43:50;102720.56;;;5.09;100.00
31285;BME280;56605;51.516;6.742;2023-05-03T05:46:15;102725.88;;;5.09;100.00
31285;BME280;56605;51.516;6.742;2023-05-03T05:48:41;102731.59;;;5.17;100.00
31285;BME280;56605;51.516;6.742;2023-05-03T05:51:06;102731.94;;;5.27;100.00
31285;BME280;56605;51.516;6.742;2023-05-03T05:53:32;102732.81;;;5.44;100.00
31285;BME280;56605;51.516;6.742;2023-05-03T05:55:57;102730.78;;;5.49;100.00
31285;BME280;56605;51.516;6.742;2023-05-03T05:58:22;102733.25;;;5.52;100.00
31285;BME280;56605;51.516;6.742;2023-05-03T06:00:48;102734.09;;;5.69;100.00
31285;BME280;56605;51.516;6.742;2023-05-03T06:03:14;102731.81;;;5.79;100.00
31285;BME280;56605;51.516;6.742;2023-05-03T06:05:40;102735.03;;;6.00;100.00
31285;BME280;56605;51.516;6.742;2023-05-03T06:08:05;102741.03;;;5.88;100.00
31285;BME280;56605;51.516;6.742;2023-05-03T06:10:31;102747.72;;;6.11;100.00
31285;BME280;56605;51.516;6.742;2023-05-03T06:12:56;102738.81;;;6.12;100.00
31285;BME280;56605;51.516;6.742;2023-05-03T06:15:22;102752.31;;;6.38;100.00
31285;BME280;56605;51.516;6.742;2023-05-03T06:17:47;102749.06;;;6.18;100.00
31285;BME280;56605;51.516;6.742;2023-05-03T06:20:12;102737.88;;;6.44;100.00
31285;BME280;56605;51.516;6.742;2023-05-03T06:22:37;102742.53;;;6.55;100.00
31285;BME280;56605;51.516;6.742;2023-05-03T06:25:04;102740.66;;;6.57;100.00
31285;BME280;56605;51.516;6.742;2023-05-03T06:27:29;102739.69;;;6.58;100.00
31285;BME280;56605;51.516;6.742;2023-05-03T06:29:55;102736.94;;;6.59;100.00
31285;BME280;56605;51.516;6.742;2023-05-03T06:32:20;102739.97;;;6.68;100.00
31285;BME280;56605;51.516;6.742;2023-05-03T06:34:47;102737.66;;;6.78;100.00
31285;BME280;56605;51.516;6.742;2023-05-03T06:37:12;102730.22;;;6.83;100.00
31285;BME280;56605;51.516;6.742;2023-05-03T06:39:38;102740.66;;;6.71;100.00
31285;BME280;56605;51.516;6.742;2023-05-03T06:42:03;102739.44;;;6.92;100.00
31285;BME280;56605;51.516;6.742;2023-05-03T06:44:28;102736.50;;;6.96;100.00
31285;BME280;56605;51.516;6.742;2023-05-03T06:46:54;102731.97;;;7.13;100.00
31285;BME280;56605;51.516;6.742;2023-05-03T06:49:19;102745.44;;;7.10;100.00
31285;BME280;56605;51.516;6.742;2023-05-03T06:51:46;102743.72;;;7.09;100.00
31285;BME280;56605;51.516;6.742;2023-05-03T06:54:11;102741.72;;;7.13;100.00
31285;BME280;56605;51.516;6.742;2023-05-03T06:56:36;102742.28;;;7.32;100.00
31285;BME280;56605;51.516;6.742;2023-05-03T06:59:02;102744.75;;;7.35;100.00
31285;BME280;56605;51.516;6.742;2023-05-03T07:01:31;102745.69;;;7.49;100.00
31285;BME280;56605;51.516;6.742;2023-05-03T07:03:56;102740.00;;;7.41;100.00
31285;BME280;56605;51.516;6.742;2023-05-03T07:06:23;102745.66;;;7.64;100.00
31285;BME280;56605;51.516;6.742;2023-05-03T07:08:49;102736.38;;;7.56;100.00
31285;BME280;56605;51.516;6.742;2023-05-03T07:11:15;102729.59;;;7.65;100.00
31285;BME280;56605;51.516;6.742;2023-05-03T07:13:41;102742.81;;;7.94;100.00
31285;BME280;56605;51.516;6.742;2023-05-03T07:16:06;102733.50;;;8.15;100.00
31285;BME280;56605;51.516;6.742;2023-05-03T07:18:31;102731.38;;;8.20;100.00
31285;BME280;56605;51.516;6.742;2023-05-03T07:20:57;102727.34;;;8.14;100.00
31285;BME280;56605;51.516;6.742;2023-05-03T07:23:22;102727.06;;;8.04;100.00
31285;BME280;56605;51.516;6.742;2023-05-03T07:25:47;102723.97;;;7.97;100.00
31285;BME280;56605;51.516;6.742;2023-05-03T07:28:13;102717.78;;;7.97;100.00
31285;BME280;56605;51.516;6.742;2023-05-03T07:30:38;102711.81;;;7.80;100.00
31285;BME280;56605;51.516;6.742;2023-05-03T07:33:03;102711.44;;;7.99;100.00
31285;BME280;56605;51.516;6.742;2023-05-03T07:35:29;102714.94;;;8.00;100.00
31285;BME280;56605;51.516;6.742;2023-05-03T07:37:55;102704.91;;;7.91;100.00
31285;BME280;56605;51.516;6.742;2023-05-03T07:40:21;102703.72;;;8.22;100.00
31285;BME280;56605;51.516;6.742;2023-05-03T07:42:46;102701.41;;;8.44;100.00
31285;BME280;56605;51.516;6.742;2023-05-03T07:45:11;102700.59;;;8.56;100.00
31285;BME280;56605;51.516;6.742;2023-05-03T07:47:37;102703.81;;;8.61;100.00
31285;BME280;56605;51.516;6.742;2023-05-03T07:50:04;102709.53;;;8.55;100.00
31285;BME280;56605;51.516;6.742;2023-05-03T07:52:35;102702.41;;;8.56;100.00
31285;BME280;56605;51.516;6.742;2023-05-03T07:55:01;102709.97;;;8.88;100.00
31285;BME280;56605;51.516;6.742;2023-05-03T07:57:27;102710.78;;;8.88;100.00
31285;BME280;56605;51.516;6.742;2023-05-03T07:59:53;102710.38;;;8.82;100.00
31285;BME280;56605;51.516;6.742;2023-05-03T08:02:18;102695.81;;;8.61;100.00
31285;BME280;56605;51.516;6.742;2023-05-03T08:04:43;102698.75;;;8.96;100.00
31285;BME280;56605;51.516;6.742;2023-05-03T08:07:09;102696.13;;;8.70;100.00
31285;BME280;56605;51.516;6.742;2023-05-03T08:09:34;102700.56;;;9.08;100.00
31285;BME280;56605;51.516;6.742;2023-05-03T08:12:00;102696.28;;;9.19;100.00
31285;BME280;56605;51.516;6.742;2023-05-03T08:14:27;102693.91;;;9.27;100.00
31285;BME280;56605;51.516;6.742;2023-05-03T08:16:52;102692.41;;;9.23;100.00
31285;BME280;56605;51.516;6.742;2023-05-03T08:19:17;102692.00;;;9.54;99.18
31285;BME280;56605;51.516;6.742;2023-05-03T08:21:43;102696.22;;;9.69;96.41
31285;BME280;56605;51.516;6.742;2023-05-03T08:24:08;102693.44;;;9.71;96.08
31285;BME280;56605;51.516;6.742;2023-05-03T08:26:34;102691.53;;;9.35;93.27
31285;BME280;56605;51.516;6.742;2023-05-03T08:29:00;102686.09;;;9.37;98.10
31285;BME280;56605;51.516;6.742;2023-05-03T08:31:27;102681.72;;;9.85;95.82
31285;BME280;56605;51.516;6.742;2023-05-03T08:33:54;102683.47;;;9.97;93.68
31285;BME280;56605;51.516;6.742;2023-05-03T08:36:19;102681.94;;;10.76;87.77
31285;BME280;56605;51.516;6.742;2023-05-03T08:38:45;102676.72;;;11.21;84.08
31285;BME280;56605;51.516;6.742;2023-05-03T08:41:21;102678.19;;;11.90;80.44
31285;BME280;56605;51.516;6.742;2023-05-03T08:43:51;102687.00;;;11.25;80.80
31285;BME280;56605;51.516;6.742;2023-05-03T08:46:17;102680.66;;;12.15;80.00
31285;BME280;56605;51.516;6.742;2023-05-03T08:48:44;102676.16;;;13.09;70.06
31285;BME280;56605;51.516;6.742;2023-05-03T08:51:12;102669.25;;;11.36;74.56
31285;BME280;56605;51.516;6.742;2023-05-03T08:53:38;102667.38;;;10.92;79.05
31285;BME280;56605;51.516;6.742;2023-05-03T08:56:10;102674.75;;;11.23;76.29
31285;BME280;56605;51.516;6.742;2023-05-03T08:58:37;102662.50;;;10.51;80.48
31285;BME280;56605;51.516;6.742;2023-05-03T09:01:07;102661.72;;;10.38;81.02
31285;BME280;56605;51.516;6.742;2023-05-03T09:03:34;102656.50;;;12.58;74.45
31285;BME280;56605;51.516;6.742;2023-05-03T09:05:59;102667.66;;;11.45;75.73
31285;BME280;56605;51.516;6.742;2023-05-03T09:08:26;102662.72;;;11.94;72.01
31285;BME280;56605;51.516;6.742;2023-05-03T09:10:52;102662.31;;;11.77;72.45
31285;BME280;56605;51.516;6.742;2023-05-03T09:13:17;102657.41;;;11.06;75.15
31285;BME280;56605;51.516;6.742;2023-05-03T09:15:43;102671.91;;;11.47;76.36
31285;BME280;56605;51.516;6.742;2023-05-03T09:18:17;102659.97;;;13.21;71.50
31285;BME280;56605;51.516;6.742;2023-05-03T09:20:44;102662.88;;;10.81;75.95
31285;BME280;56605;51.516;6.742;2023-05-03T09:23:16;102636.88;;;10.95;75.54
31285;BME280;56605;51.516;6.742;2023-05-03T09:28:09;102659.03;;;12.80;72.59
31285;BME280;56605;51.516;6.742;2023-05-03T09:30:35;102665.72;;;12.01;71.35
31285;BME280;56605;51.516;6.742;2023-05-03T09:33:01;102659.75;;;12.09;69.00
31285;BME280;56605;51.516;6.742;2023-05-03T09:35:26;102654.31;;;12.20;73.02
31285;BME280;56605;51.516;6.742;2023-05-03T09:37:52;102659.13;;;13.20;70.90
31285;BME280;56605;51.516;6.742;2023-05-03T09:40:18;102649.53;;;13.17;64.28
31285;BME280;56605;51.516;6.742;2023-05-03T09:43:04;102641.47;;;11.60;67.65
31285;BME280;56605;51.516;6.742;2023-05-03T09:45:30;102656.50;;;11.72;71.59
31285;BME280;56605;51.516;6.742;2023-05-03T09:47:56;102640.28;;;12.90;67.96
31285;BME280;56605;51.516;6.742;2023-05-03T09:50:23;102641.63;;;12.01;68.66
31285;BME280;56605;51.516;6.742;2023-05-03T09:52:48;102641.06;;;13.32;68.15
31285;BME280;56605;51.516;6.742;2023-05-03T09:55:15;102634.09;;;13.00;64.90
31285;BME280;56605;51.516;6.742;2023-05-03T09:57:42;102630.06;;;13.45;62.71
31285;BME280;56605;51.516;6.742;2023-05-03T10:00:11;102617.44;;;14.63;64.29
31285;BME280;56605;51.516;6.742;2023-05-03T10:02:38;102625.44;;;16.10;54.65
31285;BME280;56605;51.516;6.742;2023-05-03T10:05:06;102617.50;;;16.35;54.08
31285;BME280;56605;51.516;6.742;2023-05-03T10:07:35;102615.97;;;14.78;58.15
31285;BME280;56605;51.516;6.742;2023-05-03T10:10:01;102628.06;;;14.92;59.98
31285;BME280;56605;51.516;6.742;2023-05-03T10:12:27;102623.94;;;14.60;58.75
31285;BME280;56605;51.516;6.742;2023-05-03T10:14:54;102610.78;;;16.13;56.75
31285;BME280;56605;51.516;6.742;2023-05-03T10:17:28;102617.41;;;15.37;55.49
31285;BME280;56605;51.516;6.742;2023-05-03T10:20:35;102617.41;;;16.45;52.32
31285;BME280;56605;51.516;6.742;2023-05-03T10:23:10;102613.63;;;14.93;53.29
31285;BME280;56605;51.516;6.742;2023-05-03T10:25:37;102620.22;;;13.65;58.98
31285;BME280;56605;51.516;6.742;2023-05-03T10:28:05;102619.78;;;14.38;56.08
31285;BME280;56605;51.516;6.742;2023-05-03T10:30:39;102611.94;;;15.65;54.11
31285;BME280;56605;51.516;6.742;2023-05-03T10:35:38;102627.25;;;14.44;59.45
31285;BME280;56605;51.516;6.742;2023-05-03T10:38:14;102615.06;;;16.23;53.47
31285;BME280;56605;51.516;6.742;2023-05-03T10:40:41;102620.59;;;15.32;53.05
31285;BME280;56605;51.516;6.742;2023-05-03T10:46:05;102615.44;;;15.39;51.23
31285;BME280;56605;51.516;6.742;2023-05-03T10:48:33;102606.16;;;15.96;51.17
31285;BME280;56605;51.516;6.742;2023-05-03T10:51:33;102599.63;;;17.54;49.07
31285;BME280;56605;51.516;6.742;2023-05-03T10:54:01;102603.16;;;18.53;48.36
31285;BME280;56605;51.516;6.742;2023-05-03T10:56:26;102598.53;;;16.45;51.31
31285;BME280;56605;51.516;6.742;2023-05-03T10:58:52;102596.63;;;18.38;46.57
31285;BME280;56605;51.516;6.742;2023-05-03T11:01:22;102598.00;;;18.74;44.87
31285;BME280;56605;51.516;6.742;2023-05-03T11:06:32;102597.81;;;16.08;49.47
31285;BME280;56605;51.516;6.742;2023-05-03T11:08:58;102581.19;;;14.39;52.38
31285;BME280;56605;51.516;6.742;2023-05-03T11:11:24;102585.47;;;13.64;53.68
31285;BME280;56605;51.516;6.742;2023-05-03T11:13:50;102576.97;;;14.26;52.01
31285;BME280;56605;51.516;6.742;2023-05-03T11:16:16;102569.06;;;15.27;55.27
31285;BME280;56605;51.516;6.742;2023-05-03T11:18:41;102575.78;;;18.56;46.33
31285;BME280;56605;51.516;6.742;2023-05-03T11:21:06;102568.81;;;16.02;50.43
31285;BME280;56605;51.516;6.742;2023-05-03T11:23:32;102566.13;;;14.84;49.62
31285;BME280;56605;51.516;6.742;2023-05-03T11:25:57;102561.03;;;14.53;50.77
31285;BME280;56605;51.516;6.742;2023-05-03T11:28:23;102559.13;;;13.97;51.84
31285;BME280;56605;51.516;6.742;2023-05-03T11:30:49;102566.88;;;15.67;49.42
31285;BME280;56605;51.516;6.742;2023-05-03T11:33:15;102565.16;;;15.40;52.22
31285;BME280;56605;51.516;6.742;2023-05-03T11:35:41;102556.00;;;14.40;52.58
31285;BME280;56605;51.516;6.742;2023-05-03T11:38:07;102553.00;;;14.99;53.38
31285;BME280;56605;51.516;6.742;2023-05-03T11:40:32;102550.78;;;15.31;51.92
31285;BME280;56605;51.516;6.742;2023-05-03T11:42:58;102554.69;;;15.00;51.75
31285;BME280;56605;51.516;6.742;2023-05-03T11:45:31;102552.31;;;14.41;55.52
31285;BME280;56605;51.516;6.742;2023-05-03T11:48:02;102548.72;;;15.06;50.92
31285;BME280;56605;51.516;6.742;2023-05-03T11:50:57;102555.25;;;16.55;48.54
31285;BME280;56605;51.516;6.742;2023-05-03T11:53:23;102540.69;;;14.78;50.74
31285;BME280;56605;51.516;6.742;2023-05-03T11:55:51;102556.59;;;16.51;49.89
31285;BME280;56605;51.516;6.742;2023-05-03T11:58:20;102563.34;;;16.63;47.63
31285;BME280;56605;51.516;6.742;2023-05-03T12:00:47;102561.25;;;18.00;45.84
31285;BME280;56605;51.516;6.742;2023-05-03T12:03:19;102561.81;;;15.64;48.46
31285;BME280;56605;51.516;6.742;2023-05-03T12:05:45;102559.91;;;16.96;47.66
31285;BME280;56605;51.516;6.742;2023-05-03T12:08:12;102561.84;;;17.29;45.64
31285;BME280;56605;51.516;6.742;2023-05-03T12:10:37;102557.94;;;15.22;47.77
31285;BME280;56605;51.516;6.742;2023-05-03T12:13:12;102554.38;;;16.11;47.90
31285;BME280;56605;51.516;6.742;2023-05-03T12:15:38;102554.34;;;16.89;48.24
31285;BME280;56605;51.516;6.742;2023-05-03T12:18:06;102544.44;;;15.85;48.70
31285;BME280;56605;51.516;6.742;2023-05-03T12:20:34;102550.38;;;17.35;48.95
31285;BME280;56605;51.516;6.742;2023-05-03T12:23:01;102544.38;;;16.73;49.45
31285;BME280;56605;51.516;6.742;2023-05-03T12:25:28;102531.88;;;16.29;47.99
31285;BME280;56605;51.516;6.742;2023-05-03T12:27:55;102528.88;;;16.32;48.08
31285;BME280;56605;51.516;6.742;2023-05-03T12:30:21;102529.00;;;19.02;44.97
31285;BME280;56605;51.516;6.742;2023-05-03T12:32:47;102531.47;;;18.25;45.31
31285;BME280;56605;51.516;6.742;2023-05-03T12:35:12;102528.03;;;16.83;46.45
31285;BME280;56605;51.516;6.742;2023-05-03T12:37:38;102524.44;;;17.99;45.16
31285;BME280;56605;51.516;6.742;2023-05-03T12:40:03;102520.84;;;15.34;48.35
31285;BME280;56605;51.516;6.742;2023-05-03T12:42:30;102506.94;;;14.66;49.20
31285;BME280;56605;51.516;6.742;2023-05-03T12:44:56;102506.13;;;15.20;52.56
31285;BME280;56605;51.516;6.742;2023-05-03T12:47:22;102502.47;;;15.74;49.96
31285;BME280;56605;51.516;6.742;2023-05-03T12:49:47;102500.03;;;15.89;47.83
31285;BME280;56605;51.516;6.742;2023-05-03T12:52:12;102500.72;;;16.86;45.87
31285;BME280;56605;51.516;6.742;2023-05-03T12:54:38;102503.41;;;16.94;46.43
31285;BME280;56605;51.516;6.742;2023-05-03T12:57:03;102492.06;;;15.79;48.09
31285;BME280;56605;51.516;6.742;2023-05-03T12:59:29;102489.53;;;16.04;49.62
31285;BME280;56605;51.516;6.742;2023-05-03T13:01:54;102491.13;;;16.23;49.23
31285;BME280;56605;51.516;6.742;2023-05-03T13:04:20;102487.44;;;17.26;46.51